createdAt,value
2019-03-16T00:00:01.693Z,9.46
2019-03-16T00:02:32.807Z,9.28
2019-03-16T00:05:02.309Z,9.31
2019-03-16T00:07:33.242Z,9.57
2019-03-16T00:10:02.936Z,9.39
2019-03-16T00:12:32.503Z,9.56
2019-03-16T00:15:02.013Z,9.42
2019-03-16T00:17:31.531Z,9.54
2019-03-16T00:20:01.051Z,9.31
2019-03-16T00:22:30.579Z,9.42
2019-03-16T00:25:00.154Z,9.45
2019-03-16T00:27:30.752Z,9.39
2019-03-16T00:30:00.386Z,9.42
2019-03-16T00:32:29.881Z,9.67
2019-03-16T00:34:59.410Z,9.69
2019-03-16T00:37:28.941Z,9.56
2019-03-16T00:39:58.462Z,9.52
2019-03-16T00:42:28.150Z,9.55
2019-03-16T00:44:57.685Z,9.55
2019-03-16T00:47:28.275Z,9.59
2019-03-16T00:49:57.780Z,9.47
2019-03-16T00:52:27.298Z,9.65
2019-03-16T00:54:56.806Z,9.56
2019-03-16T00:57:26.322Z,9.40
2019-03-16T00:59:55.837Z,9.57
2019-03-16T01:02:27.285Z,9.51
2019-03-16T01:04:56.559Z,9.51
2019-03-16T01:07:26.146Z,9.39
2019-03-16T01:09:55.655Z,9.23
2019-03-16T01:12:25.172Z,9.49
2019-03-16T01:14:54.687Z,9.60
2019-03-16T01:17:24.213Z,9.67
2019-03-16T01:19:53.719Z,9.62
2019-03-16T01:22:23.240Z,9.72
2019-03-16T01:24:52.856Z,9.83
2019-03-16T01:27:22.442Z,9.75
2019-03-16T01:29:52.919Z,9.60
2019-03-16T01:32:22.441Z,9.58
2019-03-16T01:34:51.953Z,9.46
2019-03-16T01:37:21.469Z,9.56
2019-03-16T01:39:50.992Z,9.81
2019-03-16T01:42:20.521Z,9.80
2019-03-16T01:44:50.049Z,9.70
2019-03-16T01:47:19.567Z,9.82
2019-03-16T01:49:49.078Z,9.91
2019-03-16T01:52:18.592Z,9.72
2019-03-16T01:54:48.113Z,9.49
2019-03-16T01:57:17.626Z,9.64
2019-03-16T01:59:47.173Z,9.64
2019-03-16T02:02:16.692Z,9.59
2019-03-16T02:04:46.197Z,9.53
2019-03-16T02:07:15.722Z,9.52
2019-03-16T02:09:45.223Z,9.43
2019-03-16T02:12:16.024Z,9.31
2019-03-16T02:14:45.428Z,9.52
2019-03-16T02:17:14.940Z,9.48
2019-03-16T02:19:44.439Z,9.71
2019-03-16T02:22:13.964Z,9.67
2019-03-16T02:24:43.473Z,9.64
2019-03-16T02:27:12.994Z,9.60
2019-03-16T02:29:42.560Z,9.74
2019-03-16T02:32:12.077Z,9.27
2019-03-16T02:34:41.595Z,9.20
2019-03-16T02:37:11.120Z,9.27
2019-03-16T02:39:40.620Z,9.20
2019-03-16T02:42:10.128Z,9.38
2019-03-16T02:44:39.626Z,9.50
2019-03-16T02:47:09.273Z,9.32
2019-03-16T02:49:38.732Z,9.31
2019-03-16T02:52:08.233Z,9.43
2019-03-16T02:54:37.836Z,9.45
2019-03-16T02:57:07.344Z,9.34
2019-03-16T02:59:36.883Z,9.29
2019-03-16T03:02:06.400Z,9.47
2019-03-16T03:04:36.872Z,9.54
2019-03-16T03:07:06.382Z,9.30
2019-03-16T03:09:35.894Z,9.55
2019-03-16T03:12:05.393Z,9.57
2019-03-16T03:14:34.906Z,9.62
2019-03-16T03:17:04.407Z,9.85
2019-03-16T03:19:34.903Z,9.84
2019-03-16T03:22:04.426Z,9.70
2019-03-16T03:24:33.958Z,9.58
2019-03-16T03:27:03.477Z,9.59
2019-03-16T03:29:33.005Z,9.50
2019-03-16T03:32:02.536Z,9.41
2019-03-16T03:34:32.075Z,9.66
2019-03-16T03:37:01.585Z,9.66
2019-03-16T03:39:31.113Z,9.53
2019-03-16T03:42:00.659Z,9.48
2019-03-16T03:44:30.155Z,9.64
2019-03-16T03:46:59.654Z,9.49
2019-03-16T03:49:29.189Z,9.63
2019-03-16T03:51:58.791Z,9.75
2019-03-16T03:54:28.329Z,9.72
2019-03-16T03:56:57.834Z,9.84
2019-03-16T03:59:27.342Z,9.77
2019-03-16T04:01:56.838Z,9.89
2019-03-16T04:04:26.421Z,9.94
2019-03-16T04:06:55.935Z,9.59
2019-03-16T04:09:25.512Z,9.71
2019-03-16T04:11:55.012Z,9.95
2019-03-16T04:14:24.540Z,9.99
2019-03-16T04:16:54.057Z,10.06
2019-03-16T04:19:23.591Z,10.03
2019-03-16T04:21:53.109Z,10.00
2019-03-16T04:24:22.718Z,10.04
2019-03-16T04:26:52.237Z,9.98
2019-03-16T04:29:21.763Z,10.02
2019-03-16T04:31:51.285Z,10.07
2019-03-16T04:34:28.992Z,10.07
2019-03-16T04:36:52.036Z,10.00
2019-03-16T04:39:21.565Z,9.93
2019-03-16T04:41:51.060Z,9.80
2019-03-16T04:44:20.595Z,9.87
2019-03-16T04:46:50.104Z,9.86
2019-03-16T04:49:19.631Z,9.81
2019-03-16T04:51:49.136Z,9.75
2019-03-16T04:54:18.656Z,9.62
2019-03-16T04:56:49.134Z,9.67
2019-03-16T04:59:18.662Z,9.74
2019-03-16T05:01:49.141Z,9.78
2019-03-16T05:04:18.661Z,9.78
2019-03-16T05:06:48.172Z,9.55
2019-03-16T05:09:17.690Z,9.49
2019-03-16T05:11:47.202Z,9.67
2019-03-16T05:14:16.722Z,9.70
2019-03-16T05:16:46.216Z,9.53
2019-03-16T05:19:15.734Z,9.58
2019-03-16T05:21:45.247Z,9.41
2019-03-16T05:24:14.756Z,9.45
2019-03-16T05:26:44.258Z,9.64
2019-03-16T05:29:13.769Z,9.48
2019-03-16T05:31:43.272Z,9.64
2019-03-16T05:34:12.775Z,9.72
2019-03-16T05:36:42.279Z,9.49
2019-03-16T05:39:11.795Z,9.54
2019-03-16T05:41:41.293Z,9.53
2019-03-16T05:44:10.842Z,9.62
2019-03-16T05:46:40.344Z,9.69
2019-03-16T05:49:09.863Z,9.63
2019-03-16T05:51:39.381Z,9.55
2019-03-16T05:54:08.895Z,8.99
2019-03-16T05:56:38.417Z,8.88
2019-03-16T05:59:07.929Z,8.45
2019-03-16T06:01:37.430Z,8.64
2019-03-16T06:04:06.922Z,8.68
2019-03-16T06:06:36.431Z,8.51
2019-03-16T06:09:07.154Z,8.57
2019-03-16T06:11:36.661Z,8.69
2019-03-16T06:14:06.161Z,8.74
2019-03-16T06:16:35.675Z,8.98
2019-03-16T06:19:05.175Z,8.89
2019-03-16T06:21:34.683Z,8.93
2019-03-16T06:24:04.180Z,8.60
2019-03-16T06:26:33.684Z,8.68
2019-03-16T06:29:03.190Z,8.67
2019-03-16T06:31:32.702Z,8.61
2019-03-16T06:34:02.209Z,8.71
2019-03-16T06:36:32.694Z,8.81
2019-03-16T06:39:02.201Z,8.75
2019-03-16T06:41:31.990Z,8.45
2019-03-16T06:44:01.508Z,8.50
2019-03-16T06:46:31.026Z,8.66
2019-03-16T06:49:00.537Z,8.81
2019-03-16T06:51:30.045Z,8.87
2019-03-16T06:53:59.548Z,8.63
2019-03-16T06:56:29.057Z,8.75
2019-03-16T06:58:58.663Z,8.77
2019-03-16T07:01:28.157Z,8.90
2019-03-16T07:03:57.669Z,9.17
2019-03-16T07:06:28.143Z,9.24
2019-03-16T07:08:57.648Z,9.27
2019-03-16T07:11:27.238Z,9.41
2019-03-16T07:13:56.750Z,9.42
2019-03-16T07:16:26.257Z,9.24
2019-03-16T07:18:59.082Z,9.26
2019-03-16T07:21:26.988Z,9.19
2019-03-16T07:23:56.519Z,9.11
2019-03-16T07:26:26.046Z,9.12
2019-03-16T07:28:55.556Z,9.14
2019-03-16T07:31:25.078Z,9.01
2019-03-16T07:33:54.596Z,8.92
2019-03-16T07:36:24.112Z,9.05
2019-03-16T07:38:53.623Z,9.21
2019-03-16T07:41:23.135Z,9.22
2019-03-16T07:43:52.695Z,9.27
2019-03-16T07:46:22.209Z,9.46
2019-03-16T07:48:51.708Z,9.50
2019-03-16T07:51:21.221Z,9.45
2019-03-16T07:53:50.734Z,9.44
2019-03-16T07:56:20.255Z,9.55
2019-03-16T07:58:49.798Z,9.69
2019-03-16T08:01:19.395Z,9.68
2019-03-16T08:03:48.918Z,9.64
2019-03-16T08:06:18.436Z,9.60
2019-03-16T08:08:47.938Z,9.41
2019-03-16T08:11:17.452Z,9.44
2019-03-16T08:13:46.979Z,9.43
2019-03-16T08:16:16.560Z,9.30
2019-03-16T08:18:46.083Z,9.19
2019-03-16T08:21:15.595Z,9.15
2019-03-16T08:23:45.886Z,9.01
2019-03-16T08:26:15.448Z,8.94
2019-03-16T08:28:44.987Z,9.12
2019-03-16T08:31:14.505Z,9.29
2019-03-16T08:33:45.123Z,9.40
2019-03-16T08:36:14.828Z,9.33
2019-03-16T08:38:44.351Z,9.34
2019-03-16T08:41:14.409Z,9.23
2019-03-16T08:43:43.919Z,9.17
2019-03-16T08:46:13.796Z,9.16
2019-03-16T08:48:43.309Z,9.18
2019-03-16T08:51:12.912Z,9.24
2019-03-16T08:53:42.727Z,9.27
2019-03-16T08:56:12.348Z,9.35
2019-03-16T08:58:41.869Z,9.53
2019-03-16T09:01:11.685Z,9.51
2019-03-16T09:03:43.904Z,9.58
2019-03-16T09:06:12.499Z,9.56
2019-03-16T09:08:42.096Z,9.67
2019-03-16T09:11:11.672Z,9.79
2019-03-16T09:13:41.198Z,9.78
2019-03-16T09:16:10.719Z,9.84
2019-03-16T09:18:40.260Z,9.87
2019-03-16T09:21:09.768Z,9.83
2019-03-16T09:23:39.326Z,9.89
2019-03-16T09:26:08.855Z,9.99
2019-03-16T09:28:38.370Z,9.96
2019-03-16T09:31:07.974Z,10.02
2019-03-16T09:33:37.497Z,9.97
2019-03-16T09:36:06.990Z,9.94
2019-03-16T09:38:36.491Z,9.75
2019-03-16T09:41:10.582Z,9.64
2019-03-16T09:43:40.094Z,9.71
2019-03-16T09:46:09.638Z,9.91
2019-03-16T09:48:39.158Z,9.91
2019-03-16T09:51:08.693Z,9.98
2019-03-16T09:53:38.217Z,9.97
2019-03-16T09:56:07.735Z,9.92
2019-03-16T09:58:37.254Z,9.99
2019-03-16T10:01:06.838Z,10.03
2019-03-16T10:03:36.364Z,10.14
2019-03-16T10:06:05.942Z,10.23
2019-03-16T10:08:35.466Z,10.05
2019-03-16T10:11:05.067Z,9.95
2019-03-16T10:13:34.587Z,10.13
2019-03-16T10:16:04.128Z,10.14
2019-03-16T10:18:33.649Z,10.27
2019-03-16T10:21:03.154Z,10.37
2019-03-16T10:23:32.681Z,10.41
2019-03-16T10:26:02.187Z,10.43
2019-03-16T10:28:43.255Z,10.37
2019-03-16T10:31:04.854Z,10.30
2019-03-16T10:33:34.359Z,10.46
2019-03-16T10:36:03.922Z,10.41
2019-03-16T10:38:33.523Z,10.41
2019-03-16T10:41:03.038Z,10.46
2019-03-16T10:43:32.537Z,10.35
2019-03-16T10:46:02.036Z,10.29
2019-03-16T10:48:31.642Z,10.20
2019-03-16T10:51:01.153Z,10.01
2019-03-16T10:53:30.676Z,9.95
2019-03-16T10:56:00.215Z,10.05
2019-03-16T10:58:29.749Z,10.02
2019-03-16T11:00:59.355Z,10.06
2019-03-16T11:03:28.840Z,9.94
2019-03-16T11:05:58.508Z,10.09
2019-03-16T11:08:28.010Z,10.91
2019-03-16T11:10:57.522Z,11.66
2019-03-16T11:13:28.125Z,11.36
2019-03-16T11:15:57.631Z,11.04
2019-03-16T11:18:27.247Z,10.97
2019-03-16T11:20:56.745Z,10.91
2019-03-16T11:23:26.268Z,10.95
2019-03-16T11:25:56.605Z,11.07
2019-03-16T11:28:26.132Z,10.94
2019-03-16T11:30:55.726Z,11.00
2019-03-16T11:33:25.510Z,11.10
2019-03-16T11:35:55.021Z,11.13
2019-03-16T11:38:24.539Z,11.36
2019-03-16T11:40:54.098Z,11.27
2019-03-16T11:43:23.682Z,11.23
2019-03-16T11:45:53.566Z,11.59
2019-03-16T11:48:23.113Z,12.05
2019-03-16T11:50:52.618Z,11.99
2019-03-16T11:53:22.169Z,11.99
2019-03-16T11:55:54.434Z,11.93
2019-03-16T11:58:23.713Z,11.88
2019-03-16T12:00:53.213Z,11.95
2019-03-16T12:03:22.874Z,12.09
2019-03-16T12:05:52.405Z,11.97
2019-03-16T12:08:21.941Z,11.87
2019-03-16T12:10:51.437Z,11.93
2019-03-16T12:13:20.981Z,12.11
2019-03-16T12:15:50.542Z,12.18
2019-03-16T12:18:20.174Z,12.06
2019-03-16T12:20:49.680Z,11.73
2019-03-16T12:23:19.274Z,11.83
2019-03-16T12:25:49.926Z,12.11
2019-03-16T12:28:20.406Z,12.02
2019-03-16T12:30:49.914Z,11.68
2019-03-16T12:33:19.433Z,11.74
2019-03-16T12:35:49.033Z,11.85
2019-03-16T12:38:18.564Z,12.09
2019-03-16T12:40:48.088Z,11.91
2019-03-16T12:43:17.605Z,11.94
2019-03-16T12:45:47.153Z,11.84
2019-03-16T12:48:16.655Z,12.01
2019-03-16T12:50:46.171Z,12.08
2019-03-16T12:53:15.721Z,11.86
2019-03-16T12:55:45.319Z,12.01
2019-03-16T12:58:15.194Z,11.88
2019-03-16T13:00:44.734Z,12.15
2019-03-16T13:03:14.253Z,12.10
2019-03-16T13:05:43.786Z,12.12
2019-03-16T13:08:13.315Z,12.29
2019-03-16T13:10:42.844Z,12.21
2019-03-16T13:13:12.359Z,12.36
2019-03-16T13:15:44.997Z,11.96
2019-03-16T13:18:14.512Z,12.27
2019-03-16T13:20:45.385Z,12.12
2019-03-16T13:23:14.899Z,11.94
2019-03-16T13:25:44.427Z,12.23
2019-03-16T13:28:13.958Z,12.24
2019-03-16T13:30:43.494Z,12.29
2019-03-16T13:33:13.012Z,12.37
2019-03-16T13:35:42.538Z,12.22
2019-03-16T13:38:12.221Z,12.25
2019-03-16T13:40:41.750Z,12.47
2019-03-16T13:43:11.263Z,12.42
2019-03-16T13:45:40.772Z,12.45
2019-03-16T13:48:10.284Z,12.75
2019-03-16T13:50:39.794Z,12.73
2019-03-16T13:53:09.470Z,12.61
2019-03-16T13:55:39.006Z,12.45
2019-03-16T13:58:08.491Z,12.44
2019-03-16T14:00:39.075Z,12.49
2019-03-16T14:03:08.874Z,12.57
2019-03-16T14:05:38.382Z,12.53
2019-03-16T14:08:07.879Z,12.44
2019-03-16T14:10:37.682Z,12.57
2019-03-16T14:13:07.205Z,12.36
2019-03-16T14:15:36.721Z,12.47
2019-03-16T14:18:06.219Z,12.49
2019-03-16T14:20:35.769Z,12.50
2019-03-16T14:23:05.676Z,12.39
2019-03-16T14:25:36.084Z,12.22
2019-03-16T14:28:05.677Z,12.31
2019-03-16T14:30:41.389Z,12.60
2019-03-16T14:33:06.524Z,12.61
2019-03-16T14:35:36.088Z,12.33
2019-03-16T14:38:05.702Z,12.51
2019-03-16T14:40:35.233Z,12.63
2019-03-16T14:43:04.732Z,12.13
2019-03-16T14:45:34.601Z,12.23
2019-03-16T14:48:04.130Z,12.38
2019-03-16T14:50:33.710Z,12.36
2019-03-16T14:53:03.287Z,12.54
2019-03-16T14:55:32.818Z,12.69
2019-03-16T14:58:02.326Z,12.57
2019-03-16T15:00:38.220Z,12.50
2019-03-16T15:03:03.051Z,12.41
2019-03-16T15:05:32.557Z,12.64
2019-03-16T15:08:02.048Z,12.60
2019-03-16T15:10:31.563Z,12.38
2019-03-16T15:13:01.071Z,12.48
2019-03-16T15:15:34.546Z,12.47
2019-03-16T15:18:10.457Z,12.53
2019-03-16T15:20:40.234Z,12.26
2019-03-16T15:23:09.729Z,12.28
2019-03-16T15:25:39.229Z,11.99
2019-03-16T15:28:08.719Z,12.30
2019-03-16T15:30:49.746Z,12.26
2019-03-16T15:33:09.493Z,12.31
2019-03-16T15:35:39.004Z,11.82
2019-03-16T15:38:09.536Z,12.23
2019-03-16T15:40:39.096Z,12.46
2019-03-16T15:43:08.592Z,12.45
2019-03-16T15:45:38.102Z,12.44
2019-03-16T15:48:07.792Z,12.25
2019-03-16T15:50:37.293Z,11.91
2019-03-16T15:53:06.887Z,12.05
2019-03-16T15:55:36.796Z,12.18
2019-03-16T15:58:08.300Z,12.16
2019-03-16T16:00:37.509Z,12.30
2019-03-16T16:03:09.223Z,12.18
2019-03-16T16:05:38.324Z,12.21
2019-03-16T16:08:07.850Z,12.16
2019-03-16T16:10:40.573Z,12.17
2019-03-16T16:13:10.044Z,12.04
2019-03-16T16:15:39.807Z,12.19
2019-03-16T16:18:09.325Z,12.22
2019-03-16T16:20:38.822Z,12.26
2019-03-16T16:23:08.313Z,12.25
2019-03-16T16:25:37.809Z,12.35
2019-03-16T16:28:07.389Z,12.58
2019-03-16T16:30:36.968Z,12.58
2019-03-16T16:33:06.472Z,12.38
2019-03-16T16:35:36.003Z,12.63
2019-03-16T16:38:05.511Z,12.56
2019-03-16T16:40:35.260Z,12.53
2019-03-16T16:43:04.775Z,12.39
2019-03-16T16:45:34.289Z,12.63
2019-03-16T16:48:03.818Z,12.62
2019-03-16T16:50:33.454Z,12.49
2019-03-16T16:53:03.115Z,12.66
2019-03-16T16:55:32.668Z,12.75
2019-03-16T16:58:02.249Z,12.53
2019-03-16T17:00:31.900Z,12.66
2019-03-16T17:03:01.414Z,12.87
2019-03-16T17:05:30.962Z,12.94
2019-03-16T17:08:00.520Z,12.67
2019-03-16T17:10:30.118Z,12.89
2019-03-16T17:12:59.669Z,12.90
2019-03-16T17:15:29.207Z,12.86
2019-03-16T17:17:58.935Z,12.89
2019-03-16T17:20:28.550Z,12.82
2019-03-16T17:22:58.108Z,12.53
2019-03-16T17:25:27.677Z,12.81
2019-03-16T17:27:57.257Z,12.56
2019-03-16T17:30:26.861Z,12.83
2019-03-16T17:32:56.406Z,12.75
2019-03-16T17:35:25.976Z,12.70
2019-03-16T17:37:55.502Z,12.79
2019-03-16T17:40:25.025Z,12.58
2019-03-16T17:42:54.583Z,12.58
2019-03-16T17:45:24.201Z,12.50
2019-03-16T17:47:53.761Z,12.69
2019-03-16T17:50:23.312Z,12.54
2019-03-16T17:52:52.866Z,12.62
2019-03-16T17:55:22.384Z,12.62
2019-03-16T17:57:51.920Z,12.72
2019-03-16T18:00:21.612Z,12.75
2019-03-16T18:02:52.526Z,12.61
2019-03-16T18:05:22.349Z,12.71
2019-03-16T18:07:52.903Z,12.69
2019-03-16T18:10:22.470Z,12.53
2019-03-16T18:12:52.007Z,12.71
2019-03-16T18:15:21.727Z,12.56
2019-03-16T18:17:51.258Z,12.62
2019-03-16T18:20:20.788Z,12.59
2019-03-16T18:22:50.328Z,12.65
2019-03-16T18:25:19.873Z,12.52
2019-03-16T18:27:50.258Z,12.47
2019-03-16T18:30:19.836Z,12.70
2019-03-16T18:32:49.386Z,12.70
2019-03-16T18:35:18.927Z,12.50
2019-03-16T18:37:49.407Z,12.77
2019-03-16T18:40:19.825Z,12.72
2019-03-16T18:42:49.332Z,12.83
2019-03-16T18:45:19.006Z,12.88
2019-03-16T18:47:48.572Z,12.71
2019-03-16T18:50:18.096Z,12.77
2019-03-16T18:52:47.647Z,12.78
2019-03-16T18:55:17.291Z,12.86
2019-03-16T18:57:46.915Z,12.81
2019-03-16T19:00:16.582Z,12.55
2019-03-16T19:02:46.154Z,12.58
2019-03-16T19:05:15.751Z,12.59
2019-03-16T19:07:45.704Z,12.73
2019-03-16T19:10:15.337Z,12.58
2019-03-16T19:12:45.320Z,12.62
2019-03-16T19:15:14.933Z,12.53
2019-03-16T19:17:57.547Z,12.66
2019-03-16T19:20:16.994Z,12.69
2019-03-16T19:22:46.578Z,12.74
2019-03-16T19:25:16.097Z,12.64
2019-03-16T19:27:45.645Z,12.66
2019-03-16T19:30:15.287Z,12.69
2019-03-16T19:32:45.103Z,12.65
2019-03-16T19:35:14.729Z,12.83
2019-03-16T19:37:45.425Z,12.74
2019-03-16T19:40:15.866Z,12.49
2019-03-16T19:42:47.023Z,12.52
2019-03-16T19:45:17.000Z,12.74
2019-03-16T19:47:46.537Z,12.76
2019-03-16T19:50:17.036Z,12.80
2019-03-16T19:52:46.644Z,12.68
2019-03-16T19:55:16.574Z,12.70
2019-03-16T19:57:46.108Z,12.74
2019-03-16T20:00:16.699Z,12.69
2019-03-16T20:02:50.976Z,12.73
2019-03-16T20:05:17.575Z,12.75
2019-03-16T20:07:47.137Z,12.79
2019-03-16T20:10:16.797Z,12.82
2019-03-16T20:12:46.562Z,12.70
2019-03-16T20:15:16.800Z,12.62
2019-03-16T20:17:46.355Z,12.22
2019-03-16T20:20:16.042Z,12.90
2019-03-16T20:22:45.657Z,12.71
2019-03-16T20:25:16.141Z,12.82
2019-03-16T20:27:45.667Z,12.44
2019-03-16T20:30:15.311Z,12.77
2019-03-16T20:32:48.581Z,12.80
2019-03-16T20:35:16.274Z,12.85
2019-03-16T20:37:45.795Z,12.82
2019-03-16T20:40:15.519Z,12.89
2019-03-16T20:42:45.239Z,12.79
2019-03-16T20:45:14.897Z,12.62
2019-03-16T20:47:44.549Z,12.74
2019-03-16T20:50:14.077Z,12.79
2019-03-16T20:52:43.589Z,12.65
2019-03-16T20:55:13.204Z,12.75
2019-03-16T20:57:42.735Z,12.68
2019-03-16T21:00:12.490Z,12.76
2019-03-16T21:02:42.098Z,12.88
2019-03-16T21:05:11.886Z,12.74
2019-03-16T21:07:41.381Z,12.63
2019-03-16T21:10:11.050Z,12.79
2019-03-16T21:12:40.613Z,12.83
2019-03-16T21:15:11.221Z,12.85
2019-03-16T21:17:40.807Z,12.82
2019-03-16T21:20:11.389Z,12.83
2019-03-16T21:22:40.913Z,12.80
2019-03-16T21:25:10.597Z,12.73
2019-03-16T21:27:40.091Z,12.84
2019-03-16T21:30:12.000Z,12.78
2019-03-16T21:32:41.683Z,12.72
2019-03-16T21:35:11.330Z,12.63
2019-03-16T21:37:40.858Z,12.75
2019-03-16T21:40:10.515Z,12.79
2019-03-16T21:42:40.032Z,12.51
2019-03-16T21:45:09.870Z,12.65
2019-03-16T21:47:39.463Z,12.69
2019-03-16T21:50:09.478Z,12.74
2019-03-16T21:52:40.035Z,12.70
2019-03-16T21:55:09.721Z,12.70
2019-03-16T21:57:39.413Z,12.79
2019-03-16T22:00:10.697Z,12.72
2019-03-16T22:02:40.208Z,12.83
2019-03-16T22:05:10.052Z,12.86
2019-03-16T22:07:39.810Z,12.74
2019-03-16T22:10:09.742Z,12.75
2019-03-16T22:12:39.253Z,12.74
2019-03-16T22:15:09.418Z,12.79
2019-03-16T22:17:38.952Z,12.62
2019-03-16T22:20:10.584Z,12.81
2019-03-16T22:22:40.107Z,12.70
2019-03-16T22:25:10.642Z,12.70
2019-03-16T22:27:40.179Z,12.70
2019-03-16T22:30:09.910Z,12.79
2019-03-16T22:32:39.468Z,12.83
2019-03-16T22:35:09.529Z,12.65
2019-03-16T22:37:39.093Z,12.80
2019-03-16T22:40:08.760Z,12.66
2019-03-16T22:42:38.290Z,12.75
2019-03-16T22:45:07.888Z,12.76
2019-03-16T22:47:37.404Z,12.81
2019-03-16T22:50:07.138Z,12.78
2019-03-16T22:52:36.633Z,12.76
2019-03-16T22:55:06.236Z,12.62
2019-03-16T22:57:35.844Z,12.73
2019-03-16T23:00:07.184Z,12.67
2019-03-16T23:02:38.376Z,12.62
2019-03-16T23:05:09.367Z,12.60
2019-03-16T23:07:38.898Z,12.70
2019-03-16T23:10:09.225Z,12.66
2019-03-16T23:12:38.745Z,12.72
2019-03-16T23:15:08.341Z,12.72
2019-03-16T23:17:37.872Z,12.73
2019-03-16T23:20:07.393Z,12.68
2019-03-16T23:22:36.952Z,12.84
2019-03-16T23:25:06.743Z,12.78
2019-03-16T23:27:36.639Z,12.72
2019-03-16T23:30:06.657Z,12.64
2019-03-16T23:32:36.285Z,12.65
2019-03-16T23:35:05.939Z,12.69
2019-03-16T23:37:37.638Z,12.58
2019-03-16T23:40:07.443Z,12.57
2019-03-16T23:42:36.968Z,12.51
2019-03-16T23:45:06.748Z,12.58
2019-03-16T23:47:37.246Z,12.62
2019-03-16T23:50:06.871Z,12.67
2019-03-16T23:52:37.120Z,12.57
2019-03-16T23:55:07.514Z,12.65
2019-03-16T23:57:37.042Z,12.58
